createdAt,value
2024-05-09T00:00:59.308Z,52.07
2024-05-09T00:01:59.317Z,52.51
2024-05-09T00:02:59.321Z,51.14
2024-05-09T00:03:59.356Z,51.00
2024-05-09T00:04:59.581Z,51.20
2024-05-09T00:05:59.464Z,51.52
2024-05-09T00:06:59.383Z,50.47
2024-05-09T00:07:59.497Z,50.96
2024-05-09T00:08:59.501Z,50.64
2024-05-09T00:09:59.584Z,51.57
2024-05-09T00:10:59.724Z,50.29
2024-05-09T00:12:00.042Z,50.97
2024-05-09T00:12:59.799Z,51.36
2024-05-09T00:13:59.934Z,52.21
2024-05-09T00:14:59.936Z,52.23
2024-05-09T00:16:00.047Z,53.32
2024-05-09T00:17:00.205Z,51.08
2024-05-09T00:18:00.571Z,52.81
2024-05-09T00:19:00.453Z,50.99
2024-05-09T00:20:00.454Z,52.12
2024-05-09T00:21:00.606Z,53.90
2024-05-09T00:22:00.470Z,50.92
2024-05-09T00:23:00.576Z,50.90
2024-05-09T00:24:00.616Z,50.32
2024-05-09T00:25:00.675Z,50.78
2024-05-09T00:26:00.832Z,51.95
2024-05-09T00:27:00.838Z,52.24
2024-05-09T00:28:00.971Z,54.96
2024-05-09T00:29:00.999Z,52.73
2024-05-09T00:30:01.030Z,53.49
2024-05-09T00:31:01.108Z,52.92
2024-05-09T00:32:01.390Z,52.79
2024-05-09T00:33:01.600Z,52.49
2024-05-09T00:34:01.617Z,53.58
2024-05-09T00:35:01.506Z,53.89
2024-05-09T00:36:01.458Z,53.73
2024-05-09T00:37:01.525Z,53.48
2024-05-09T00:38:01.953Z,53.09
2024-05-09T00:39:01.685Z,53.18
2024-05-09T00:40:01.767Z,53.48
2024-05-09T00:41:01.843Z,53.36
2024-05-09T00:42:01.863Z,53.66
2024-05-09T00:43:01.937Z,51.28
2024-05-09T00:44:02.091Z,50.91
2024-05-09T00:45:02.144Z,52.95
2024-05-09T00:46:02.180Z,51.75
2024-05-09T00:47:02.304Z,51.95
2024-05-09T00:48:02.583Z,52.38
2024-05-09T00:49:02.475Z,52.23
2024-05-09T00:50:03.185Z,52.64
2024-05-09T00:51:02.564Z,52.16
2024-05-09T00:52:02.602Z,52.53
2024-05-09T00:53:02.717Z,51.68
2024-05-09T00:54:02.750Z,50.50
2024-05-09T00:55:02.825Z,50.59
2024-05-09T00:56:02.952Z,51.59
2024-05-09T00:57:02.991Z,51.44
2024-05-09T00:58:03.078Z,51.42
2024-05-09T00:59:03.193Z,51.09
2024-05-09T01:00:04.752Z,50.43
2024-05-09T01:01:03.272Z,51.99
2024-05-09T01:02:03.439Z,53.14
2024-05-09T01:03:03.584Z,51.61
2024-05-09T01:04:03.400Z,52.12
2024-05-09T01:05:03.423Z,52.69
2024-05-09T01:06:03.424Z,51.00
2024-05-09T01:07:03.357Z,52.05
2024-05-09T01:08:03.512Z,52.92
2024-05-09T01:09:03.393Z,53.89
2024-05-09T01:10:05.552Z,51.80
2024-05-09T01:11:03.549Z,51.88
2024-05-09T01:12:03.616Z,52.07
2024-05-09T01:13:03.512Z,52.21
2024-05-09T01:14:03.514Z,52.63
2024-05-09T01:15:03.513Z,51.63
2024-05-09T01:16:03.635Z,50.55
2024-05-09T01:17:03.546Z,52.05
2024-05-09T01:18:03.790Z,50.97
2024-05-09T01:19:03.652Z,53.94
2024-05-09T01:20:06.250Z,52.50
2024-05-09T01:21:03.620Z,52.61
2024-05-09T01:22:03.629Z,52.80
2024-05-09T01:23:03.762Z,52.78
2024-05-09T01:24:03.678Z,53.37
2024-05-09T01:25:03.689Z,52.61
2024-05-09T01:26:03.741Z,52.43
2024-05-09T01:27:03.718Z,50.70
2024-05-09T01:28:03.763Z,50.58
2024-05-09T01:29:03.797Z,51.89
2024-05-09T01:30:09.018Z,50.12
2024-05-09T01:31:04.845Z,50.25
2024-05-09T01:32:03.977Z,48.93
2024-05-09T01:33:04.450Z,50.79
2024-05-09T01:34:03.910Z,50.57
2024-05-09T01:35:03.963Z,50.24
2024-05-09T01:36:03.948Z,50.72
2024-05-09T01:37:03.954Z,50.76
2024-05-09T01:38:04.205Z,50.48
2024-05-09T01:39:04.017Z,51.68
2024-05-09T01:40:07.322Z,50.33
2024-05-09T01:41:04.086Z,51.80
2024-05-09T01:42:04.070Z,51.99
2024-05-09T01:43:04.124Z,50.21
2024-05-09T01:44:04.194Z,50.70
2024-05-09T01:45:04.134Z,50.43
2024-05-09T01:46:04.177Z,50.00
2024-05-09T01:47:04.299Z,51.00
2024-05-09T01:48:04.742Z,50.10
2024-05-09T01:49:04.342Z,50.13
2024-05-09T01:50:06.782Z,50.10
2024-05-09T01:51:04.356Z,50.20
2024-05-09T01:52:04.327Z,50.31
2024-05-09T01:53:04.362Z,50.76
2024-05-09T01:54:04.390Z,51.33
2024-05-09T01:55:06.491Z,51.46
2024-05-09T01:56:04.686Z,52.90
2024-05-09T01:57:04.615Z,50.40
2024-05-09T01:58:04.766Z,51.37
2024-05-09T01:59:04.797Z,50.31
2024-05-09T02:00:07.565Z,51.63
2024-05-09T02:01:04.974Z,51.42
2024-05-09T02:02:05.316Z,51.60
2024-05-09T02:03:05.077Z,50.94
2024-05-09T02:04:05.065Z,52.09
2024-05-09T02:05:05.188Z,52.12
2024-05-09T02:06:05.187Z,51.01
2024-05-09T02:07:05.045Z,50.62
2024-05-09T02:08:05.164Z,50.19
2024-05-09T02:09:05.096Z,51.81
2024-05-09T02:10:13.542Z,52.91
2024-05-09T02:11:06.226Z,53.01
2024-05-09T02:12:05.351Z,53.14
2024-05-09T02:13:05.198Z,53.00
2024-05-09T02:14:05.247Z,53.31
2024-05-09T02:15:05.236Z,51.92
2024-05-09T02:16:05.255Z,51.90
2024-05-09T02:17:05.337Z,50.91
2024-05-09T02:18:05.505Z,51.44
2024-05-09T02:19:05.555Z,52.12
2024-05-09T02:20:06.259Z,50.56
2024-05-09T02:21:05.616Z,52.13
2024-05-09T02:22:05.533Z,52.21
2024-05-09T02:23:05.689Z,52.25
2024-05-09T02:24:05.589Z,52.62
2024-05-09T02:25:05.611Z,53.83
2024-05-09T02:26:05.666Z,52.90
2024-05-09T02:27:05.725Z,52.20
2024-05-09T02:28:05.721Z,52.32
2024-05-09T02:29:05.714Z,52.34
2024-05-09T02:30:12.267Z,52.32
2024-05-09T02:31:06.734Z,52.20
2024-05-09T02:32:05.809Z,52.30
2024-05-09T02:33:06.001Z,52.57
2024-05-09T02:34:05.946Z,52.82
2024-05-09T02:35:05.859Z,51.48
2024-05-09T02:36:05.858Z,51.34
2024-05-09T02:37:05.912Z,52.55
2024-05-09T02:38:05.999Z,51.39
2024-05-09T02:39:05.936Z,50.58
2024-05-09T02:40:09.223Z,52.00
2024-05-09T02:41:07.318Z,52.06
2024-05-09T02:42:06.084Z,52.08
2024-05-09T02:43:06.312Z,52.25
2024-05-09T02:44:06.178Z,52.77
2024-05-09T02:45:06.136Z,52.23
2024-05-09T02:46:06.156Z,50.95
2024-05-09T02:47:06.481Z,52.45
2024-05-09T02:48:06.507Z,50.93
2024-05-09T02:49:06.424Z,52.03
2024-05-09T02:50:08.085Z,51.37
2024-05-09T02:51:06.450Z,50.36
2024-05-09T02:52:06.462Z,51.73
2024-05-09T02:53:06.590Z,51.33
2024-05-09T02:54:06.614Z,50.53
2024-05-09T02:55:06.681Z,51.04
2024-05-09T02:56:06.812Z,52.42
2024-05-09T02:57:06.885Z,51.39
2024-05-09T02:58:06.970Z,50.94
2024-05-09T02:59:07.039Z,51.30
2024-05-09T03:00:14.959Z,51.44
2024-05-09T03:01:08.164Z,51.56
2024-05-09T03:02:07.198Z,51.72
2024-05-09T03:03:07.386Z,51.91
2024-05-09T03:04:07.301Z,52.23
2024-05-09T03:05:07.268Z,50.57
2024-05-09T03:06:07.250Z,52.56
2024-05-09T03:07:07.342Z,50.33
2024-05-09T03:08:07.407Z,50.32
2024-05-09T03:09:07.334Z,50.41
2024-05-09T03:10:14.602Z,50.86
2024-05-09T03:11:08.544Z,50.50
2024-05-09T03:12:07.585Z,51.01
2024-05-09T03:13:07.446Z,51.34
2024-05-09T03:14:07.507Z,51.78
2024-05-09T03:15:07.490Z,51.80
2024-05-09T03:16:07.513Z,51.14
2024-05-09T03:17:07.601Z,51.21
2024-05-09T03:18:07.888Z,51.99
2024-05-09T03:19:07.725Z,50.48
2024-05-09T03:20:16.999Z,50.71
2024-05-09T03:21:08.825Z,50.81
2024-05-09T03:22:07.705Z,50.98
2024-05-09T03:23:08.491Z,51.10
2024-05-09T03:24:07.736Z,50.90
2024-05-09T03:25:07.747Z,50.84
2024-05-09T03:26:07.799Z,50.46
2024-05-09T03:27:07.817Z,50.38
2024-05-09T03:28:07.813Z,51.80
2024-05-09T03:29:08.005Z,51.75
2024-05-09T03:30:09.896Z,50.06
2024-05-09T03:31:08.077Z,50.55
2024-05-09T03:32:08.203Z,50.00
2024-05-09T03:33:08.476Z,50.00
2024-05-09T03:34:08.401Z,49.86
2024-05-09T03:35:08.457Z,49.90
2024-05-09T03:36:11.083Z,50.00
2024-05-09T03:37:08.532Z,49.21
2024-05-09T03:38:08.667Z,50.00
2024-05-09T03:39:08.599Z,49.83
2024-05-09T03:40:14.491Z,50.52
2024-05-09T03:41:09.692Z,48.17
2024-05-09T03:42:08.676Z,42.40
2024-05-09T03:43:08.698Z,37.30
2024-05-09T03:44:08.755Z,29.28
2024-05-09T03:45:08.763Z,21.88
2024-05-09T03:46:08.825Z,14.51
2024-05-09T03:47:08.856Z,8.65
2024-05-09T03:48:09.267Z,20.62
2024-05-09T03:49:08.995Z,35.70
2024-05-09T03:50:17.966Z,50.00
2024-05-09T03:51:10.053Z,46.45
2024-05-09T03:52:09.055Z,42.05
2024-05-09T03:53:09.059Z,36.12
2024-05-09T03:54:09.085Z,33.11
2024-05-09T03:55:09.141Z,27.10
2024-05-09T03:56:09.194Z,42.29
2024-05-09T03:57:09.207Z,50.44
2024-05-09T03:58:09.276Z,50.83
2024-05-09T03:59:09.285Z,50.69
2024-05-09T04:00:17.779Z,51.14
2024-05-09T04:01:10.351Z,50.51
2024-05-09T04:02:09.483Z,46.96
2024-05-09T04:03:11.658Z,42.88
2024-05-09T04:04:09.508Z,42.62
2024-05-09T04:05:09.522Z,39.41
2024-05-09T04:06:09.493Z,36.12
2024-05-09T04:07:09.531Z,35.40
2024-05-09T04:08:09.909Z,33.80
2024-05-09T04:09:09.592Z,48.96
2024-05-09T04:10:16.982Z,52.59
2024-05-09T04:11:10.719Z,52.24
2024-05-09T04:12:09.772Z,52.17
2024-05-09T04:13:09.710Z,51.44
2024-05-09T04:14:09.890Z,50.56
2024-05-09T04:15:12.827Z,46.58
2024-05-09T04:16:09.804Z,44.57
2024-05-09T04:17:09.866Z,45.94
2024-05-09T04:18:10.086Z,43.74
2024-05-09T04:19:10.037Z,44.95
2024-05-09T04:20:15.164Z,40.36
2024-05-09T04:21:11.168Z,43.69
2024-05-09T04:22:09.991Z,43.13
2024-05-09T04:23:10.054Z,41.32
2024-05-09T04:24:10.049Z,42.35
2024-05-09T04:25:10.076Z,40.64
2024-05-09T04:26:10.133Z,41.05
2024-05-09T04:27:10.175Z,34.33
2024-05-09T04:28:10.193Z,36.40
2024-05-09T04:29:10.311Z,52.16
2024-05-09T04:30:18.531Z,53.81
2024-05-09T04:31:11.380Z,50.31
2024-05-09T04:32:10.381Z,52.46
2024-05-09T04:33:12.512Z,48.51
2024-05-09T04:34:10.572Z,49.53
2024-05-09T04:35:10.591Z,50.65
2024-05-09T04:36:17.862Z,50.00
2024-05-09T04:37:17.878Z,50.00
2024-05-09T04:38:17.913Z,50.00
2024-05-09T04:39:17.874Z,50.00
2024-05-09T04:40:27.649Z,50.00
2024-05-09T04:41:18.959Z,50.00
2024-05-09T04:42:17.939Z,50.00
2024-05-09T04:43:17.919Z,50.00
2024-05-09T04:44:17.988Z,50.00
2024-05-09T04:45:17.934Z,50.00
2024-05-09T04:46:17.934Z,50.25
2024-05-09T04:47:18.134Z,51.87
2024-05-09T04:48:18.055Z,51.80
2024-05-09T04:49:18.113Z,50.00
2024-05-09T04:50:29.000Z,50.62
2024-05-09T04:51:18.928Z,50.65
2024-05-09T04:52:17.930Z,47.40
2024-05-09T04:53:18.207Z,48.03
2024-05-09T04:54:29.889Z,45.68
2024-05-09T04:55:18.945Z,47.21
2024-05-09T04:56:17.947Z,42.80
2024-05-09T04:57:17.941Z,42.45
2024-05-09T04:58:17.937Z,41.87
2024-05-09T04:59:17.956Z,39.99
2024-05-09T05:00:25.779Z,53.05
2024-05-09T05:01:18.993Z,49.85
2024-05-09T05:02:18.043Z,50.68
2024-05-09T05:03:18.260Z,50.66
2024-05-09T05:04:18.045Z,49.96
2024-05-09T05:05:17.999Z,49.44
2024-05-09T05:06:17.957Z,52.71
2024-05-09T05:07:17.955Z,50.28
2024-05-09T05:08:18.966Z,52.95
2024-05-09T05:09:17.954Z,50.93
2024-05-09T05:10:25.277Z,49.17
2024-05-09T05:11:19.107Z,52.84
2024-05-09T05:12:18.013Z,50.04
2024-05-09T05:13:18.996Z,50.19
2024-05-09T05:14:17.990Z,47.41
2024-05-09T05:15:17.947Z,47.77
2024-05-09T05:16:17.959Z,50.00
2024-05-09T05:17:18.021Z,52.20
2024-05-09T05:18:18.459Z,51.27
2024-05-09T05:19:18.067Z,51.56
2024-05-09T05:20:27.067Z,52.31
2024-05-09T05:21:19.300Z,51.01
2024-05-09T05:22:17.981Z,51.42
2024-05-09T05:23:18.008Z,51.47
2024-05-09T05:24:17.969Z,50.18
2024-05-09T05:25:17.983Z,51.46
2024-05-09T05:26:18.003Z,50.64
2024-05-09T05:27:17.983Z,54.92
2024-05-09T05:28:17.998Z,52.81
2024-05-09T05:29:20.829Z,55.11
2024-05-09T05:30:25.026Z,57.22
2024-05-09T05:31:19.031Z,57.30
2024-05-09T05:32:18.253Z,55.75
2024-05-09T05:33:18.567Z,56.43
2024-05-09T05:34:17.997Z,56.52
2024-05-09T05:35:18.064Z,57.39
2024-05-09T05:36:18.008Z,58.02
2024-05-09T05:37:18.019Z,58.39
2024-05-09T05:38:18.198Z,58.38
2024-05-09T05:39:18.010Z,58.78
2024-05-09T05:40:27.966Z,58.53
2024-05-09T05:41:18.049Z,58.59
2024-05-09T05:42:18.004Z,58.95
2024-05-09T05:43:18.225Z,59.95
2024-05-09T05:44:18.122Z,59.41
2024-05-09T05:45:18.022Z,58.88
2024-05-09T05:46:18.021Z,61.57
2024-05-09T05:47:18.079Z,60.53
2024-05-09T05:48:18.525Z,61.68
2024-05-09T05:49:18.103Z,59.41
2024-05-09T05:50:27.287Z,57.91
2024-05-09T05:51:19.191Z,58.07
2024-05-09T05:52:18.050Z,57.99
2024-05-09T05:53:18.161Z,58.55
2024-05-09T05:54:18.063Z,58.05
2024-05-09T05:55:18.076Z,58.24
2024-05-09T05:56:18.107Z,57.88
2024-05-09T05:57:18.079Z,58.27
2024-05-09T05:58:18.107Z,57.18
2024-05-09T05:59:18.179Z,57.91
2024-05-09T06:00:29.066Z,55.90
2024-05-09T06:01:19.130Z,55.90
2024-05-09T06:02:18.267Z,55.84
2024-05-09T06:03:18.166Z,54.55
2024-05-09T06:04:18.209Z,54.55
2024-05-09T06:05:18.159Z,54.24
2024-05-09T06:06:18.128Z,53.35
2024-05-09T06:07:18.130Z,51.76
2024-05-09T06:08:18.245Z,54.52
2024-05-09T06:09:18.286Z,52.91
2024-05-09T06:10:25.172Z,52.72
2024-05-09T06:11:19.308Z,52.06
2024-05-09T06:12:18.259Z,52.55
2024-05-09T06:13:18.167Z,52.44
2024-05-09T06:14:18.299Z,51.41
2024-05-09T06:15:18.165Z,49.12
2024-05-09T06:16:18.176Z,52.66
2024-05-09T06:17:18.308Z,53.51
2024-05-09T06:18:18.541Z,52.20
2024-05-09T06:19:18.250Z,53.03
2024-05-09T06:20:23.987Z,54.28
2024-05-09T06:21:19.382Z,54.30
2024-05-09T06:22:18.191Z,54.42
2024-05-09T06:23:18.268Z,51.93
2024-05-09T06:24:18.178Z,52.03
2024-05-09T06:25:18.189Z,53.71
2024-05-09T06:26:18.251Z,54.64
2024-05-09T06:27:18.203Z,53.16
2024-05-09T06:28:18.203Z,50.50
2024-05-09T06:29:18.265Z,51.62
2024-05-09T06:30:25.433Z,51.69
2024-05-09T06:31:19.218Z,51.69
2024-05-09T06:32:18.329Z,51.12
2024-05-09T06:33:18.487Z,49.75
2024-05-09T06:34:18.462Z,49.20
2024-05-09T06:35:18.365Z,45.03
2024-05-09T06:36:18.257Z,50.15
2024-05-09T06:37:18.273Z,52.21
2024-05-09T06:38:18.300Z,50.00
2024-05-09T06:39:18.253Z,50.00
2024-05-09T06:40:25.415Z,51.13
2024-05-09T06:41:19.318Z,51.19
2024-05-09T06:42:18.302Z,51.44
2024-05-09T06:43:19.604Z,49.08
2024-05-09T06:44:18.312Z,49.75
2024-05-09T06:45:18.270Z,49.38
2024-05-09T06:46:18.322Z,50.00
2024-05-09T06:47:18.372Z,51.92
2024-05-09T06:48:18.784Z,50.67
2024-05-09T06:49:18.430Z,53.39
2024-05-09T06:50:23.899Z,50.00
2024-05-09T06:51:19.358Z,50.18
2024-05-09T06:52:18.331Z,50.90
2024-05-09T06:53:18.417Z,51.18
2024-05-09T06:54:18.342Z,50.76
2024-05-09T06:55:18.341Z,51.82
2024-05-09T06:56:18.379Z,50.03
2024-05-09T06:57:18.361Z,49.95
2024-05-09T06:58:18.349Z,49.66
2024-05-09T06:59:18.511Z,48.76
2024-05-09T07:00:26.888Z,48.13
2024-05-09T07:01:19.368Z,47.84
2024-05-09T07:02:18.457Z,45.62
2024-05-09T07:03:19.543Z,44.06
2024-05-09T07:04:18.405Z,42.31
2024-05-09T07:05:18.445Z,38.63
2024-05-09T07:06:18.393Z,51.56
2024-05-09T07:07:18.384Z,50.29
2024-05-09T07:08:18.534Z,51.56
2024-05-09T07:09:18.382Z,52.19
2024-05-09T07:10:25.717Z,51.13
2024-05-09T07:11:19.449Z,48.88
2024-05-09T07:12:18.543Z,47.00
2024-05-09T07:13:18.393Z,45.41
2024-05-09T07:14:18.646Z,45.37
2024-05-09T07:15:18.396Z,43.03
2024-05-09T07:16:18.414Z,50.00
2024-05-09T07:17:18.467Z,50.00
2024-05-09T07:18:19.323Z,51.34
2024-05-09T07:19:18.568Z,52.07
2024-05-09T07:20:23.743Z,50.16
2024-05-09T07:21:19.569Z,50.26
2024-05-09T07:22:18.416Z,48.40
2024-05-09T07:23:18.738Z,47.70
2024-05-09T07:24:18.423Z,48.15
2024-05-09T07:25:18.457Z,46.90
2024-05-09T07:26:18.547Z,45.26
2024-05-09T07:27:18.452Z,44.40
2024-05-09T07:28:18.563Z,39.94
2024-05-09T07:29:18.466Z,50.82
2024-05-09T07:30:23.808Z,51.39
2024-05-09T07:31:19.438Z,51.43
2024-05-09T07:32:18.539Z,50.97
2024-05-09T07:33:19.174Z,49.85
2024-05-09T07:34:18.611Z,49.48
2024-05-09T07:35:18.464Z,48.55
2024-05-09T07:36:18.439Z,50.42
2024-05-09T07:37:18.433Z,50.00
2024-05-09T07:38:18.535Z,51.83
2024-05-09T07:39:18.604Z,52.46
2024-05-09T07:40:28.441Z,52.79
2024-05-09T07:41:19.489Z,52.80
2024-05-09T07:42:18.432Z,51.49
2024-05-09T07:43:18.463Z,53.00
2024-05-09T07:44:18.468Z,53.32
2024-05-09T07:47:14.408Z,53.22
2024-05-09T07:48:29.204Z,53.33
2024-05-09T07:51:31.638Z,53.42
2024-05-09T07:53:38.216Z,53.45
2024-05-09T07:54:18.622Z,53.57
2024-05-09T07:55:18.671Z,54.22
2024-05-09T07:56:19.736Z,55.46
2024-05-09T07:57:18.559Z,53.48
2024-05-09T07:58:18.578Z,54.18
2024-05-09T07:59:18.478Z,53.51
2024-05-09T08:00:23.806Z,54.37
2024-05-09T08:01:19.759Z,53.59
2024-05-09T08:02:18.584Z,54.90
2024-05-09T08:03:18.641Z,56.92
2024-05-09T08:04:18.562Z,60.60
2024-05-09T08:05:18.539Z,62.87
2024-05-09T08:06:18.467Z,64.81
2024-05-09T08:07:18.495Z,63.91
2024-05-09T08:08:18.502Z,61.95
2024-05-09T08:09:21.231Z,60.84
2024-05-09T08:10:22.241Z,61.77
2024-05-09T08:11:19.528Z,60.00
2024-05-09T08:12:18.491Z,59.81
2024-05-09T08:13:18.688Z,57.95
2024-05-09T08:14:18.510Z,55.19
2024-05-09T08:15:18.519Z,55.38
2024-05-09T08:16:18.676Z,53.22
2024-05-09T08:17:18.557Z,53.19
2024-05-09T08:18:18.645Z,50.00
2024-05-09T08:19:18.598Z,50.71
2024-05-09T08:20:26.864Z,49.98
2024-05-09T08:21:19.560Z,50.04
2024-05-09T08:22:18.572Z,50.21
2024-05-09T08:23:18.531Z,50.13
2024-05-09T08:24:18.534Z,49.20
2024-05-09T08:25:18.644Z,47.73
2024-05-09T08:26:18.531Z,50.00
2024-05-09T08:27:18.544Z,50.18
2024-05-09T08:28:18.681Z,51.24
2024-05-09T08:29:18.547Z,51.04
2024-05-09T08:30:24.933Z,50.00
2024-05-09T08:31:19.606Z,50.02
2024-05-09T08:32:18.598Z,48.17
2024-05-09T08:33:18.693Z,49.70
2024-05-09T08:34:18.634Z,47.63
2024-05-09T08:35:18.540Z,45.39
2024-05-09T08:36:18.547Z,51.16
2024-05-09T08:37:22.513Z,49.13
2024-05-09T08:38:19.564Z,49.29
2024-05-09T08:39:18.538Z,49.76
2024-05-09T08:40:24.248Z,50.79
2024-05-09T08:41:19.536Z,49.29
2024-05-09T08:42:18.553Z,49.58
2024-05-09T08:43:18.614Z,49.36
2024-05-09T08:44:18.542Z,48.62
2024-05-09T08:45:18.544Z,50.04
2024-05-09T08:46:18.882Z,50.00
2024-05-09T08:47:18.578Z,49.91
2024-05-09T08:48:18.825Z,52.35
2024-05-09T08:49:18.646Z,52.14
2024-05-09T08:50:28.906Z,51.27
2024-05-09T08:51:19.532Z,51.30
2024-05-09T08:52:18.551Z,50.23
2024-05-09T08:53:18.533Z,50.59
2024-05-09T08:54:18.528Z,49.08
2024-05-09T08:55:18.586Z,49.84
2024-05-09T08:56:18.541Z,50.00
2024-05-09T08:57:18.521Z,51.00
2024-05-09T08:58:18.600Z,52.09
2024-05-09T08:59:18.522Z,52.20
2024-05-09T09:00:29.237Z,51.08
2024-05-09T09:01:19.754Z,51.10
2024-05-09T09:02:18.705Z,51.20
2024-05-09T09:03:19.075Z,51.11
2024-05-09T09:04:18.751Z,49.98
2024-05-09T09:05:18.694Z,49.79
2024-05-09T09:06:18.574Z,47.35
2024-05-09T09:07:18.576Z,46.46
2024-05-09T09:08:18.584Z,49.75
2024-05-09T09:09:18.555Z,51.41
2024-05-09T09:10:28.921Z,50.78
2024-05-09T09:11:19.594Z,50.87
2024-05-09T09:12:18.549Z,50.85
2024-05-09T09:13:18.611Z,50.39
2024-05-09T09:14:18.570Z,50.71
2024-05-09T09:15:18.593Z,48.77
2024-05-09T09:16:18.732Z,50.82
2024-05-09T09:17:18.604Z,51.38
2024-05-09T09:18:19.102Z,50.00
2024-05-09T09:19:18.736Z,52.11
2024-05-09T09:20:25.958Z,52.13
2024-05-09T09:21:19.691Z,51.54
2024-05-09T09:22:18.707Z,52.08
2024-05-09T09:23:18.708Z,52.66
2024-05-09T09:24:18.723Z,51.76
2024-05-09T09:25:18.809Z,48.59
2024-05-09T09:26:18.686Z,50.75
2024-05-09T09:27:18.694Z,50.81
2024-05-09T09:28:18.711Z,50.00
2024-05-09T09:29:18.683Z,50.91
2024-05-09T09:30:31.653Z,52.36
2024-05-09T09:31:19.862Z,52.36
2024-05-09T09:32:18.773Z,52.49
2024-05-09T09:33:19.002Z,53.26
2024-05-09T09:34:18.881Z,55.29
2024-05-09T09:35:18.703Z,60.05
2024-05-09T09:36:18.751Z,65.54
2024-05-09T09:37:18.755Z,70.44
2024-05-09T09:38:18.716Z,75.64
2024-05-09T09:39:18.702Z,80.15
2024-05-09T09:40:22.124Z,90.79
2024-05-09T09:41:18.688Z,95.55
2024-05-09T09:42:18.688Z,100.05
2024-05-09T09:43:18.761Z,107.27
2024-05-09T09:44:18.704Z,108.14
2024-05-09T09:45:18.684Z,113.44
2024-05-09T09:46:18.693Z,118.14
2024-05-09T09:47:19.144Z,121.49
2024-05-09T09:48:18.787Z,125.86
2024-05-09T09:49:18.951Z,130.25
2024-05-09T09:50:24.087Z,132.01
2024-05-09T09:51:19.678Z,132.27
2024-05-09T09:52:18.765Z,133.63
2024-05-09T09:53:18.638Z,137.56
2024-05-09T09:54:18.646Z,144.10
2024-05-09T09:55:18.630Z,158.71
2024-05-09T09:56:18.635Z,162.83
2024-05-09T09:57:18.635Z,169.44
2024-05-09T09:58:18.764Z,173.40
2024-05-09T09:59:18.607Z,176.96
2024-05-09T10:00:24.489Z,180.89
2024-05-09T10:01:19.781Z,181.07
2024-05-09T10:02:18.802Z,182.61
2024-05-09T10:03:18.692Z,185.84
2024-05-09T10:04:18.669Z,192.34
2024-05-09T10:05:18.665Z,204.28
2024-05-09T10:06:18.545Z,200.00
2024-05-09T10:07:18.585Z,198.95
2024-05-09T10:08:18.555Z,199.13
2024-05-09T10:09:18.520Z,199.99
2024-05-09T10:10:26.521Z,200.00
2024-05-09T10:11:19.516Z,200.11
2024-05-09T10:12:18.517Z,201.14
2024-05-09T10:13:18.545Z,202.95
2024-05-09T10:14:18.465Z,206.81
2024-05-09T10:15:18.433Z,213.43
2024-05-09T10:16:18.489Z,202.32
2024-05-09T10:17:18.442Z,200.00
2024-05-09T10:18:18.609Z,199.84
2024-05-09T10:19:18.419Z,200.00
2024-05-09T10:20:22.068Z,199.47
2024-05-09T10:21:19.376Z,199.62
2024-05-09T10:22:18.416Z,200.36
2024-05-09T10:23:18.340Z,202.28
2024-05-09T10:24:18.288Z,204.87
2024-05-09T10:25:18.379Z,211.20
2024-05-09T10:26:18.256Z,200.00
2024-05-09T10:27:18.259Z,199.32
2024-05-09T10:28:18.324Z,199.44
2024-05-09T10:29:18.232Z,199.40
2024-05-09T10:30:25.852Z,200.00
2024-05-09T10:31:19.218Z,200.10
2024-05-09T10:32:18.269Z,200.32
2024-05-09T10:33:18.243Z,201.70
2024-05-09T10:34:18.352Z,203.43
2024-05-09T10:35:18.120Z,207.52
2024-05-09T10:36:18.121Z,200.00
2024-05-09T10:37:18.144Z,199.70
2024-05-09T10:38:18.084Z,199.30
2024-05-09T10:39:18.084Z,197.45
2024-05-09T10:40:25.818Z,198.79
2024-05-09T10:41:19.030Z,198.80
2024-05-09T10:42:18.008Z,198.98
2024-05-09T10:43:18.177Z,199.63
2024-05-09T10:44:18.036Z,197.54
2024-05-09T10:45:17.996Z,202.61
2024-05-09T10:46:18.137Z,197.52
2024-05-09T10:47:17.975Z,199.74
2024-05-09T10:48:18.121Z,198.50
2024-05-09T10:49:18.205Z,197.57
2024-05-09T10:50:22.601Z,198.41
2024-05-09T10:51:19.045Z,198.51
2024-05-09T10:52:18.044Z,198.68
2024-05-09T10:53:18.015Z,199.43
2024-05-09T10:54:17.978Z,197.84
2024-05-09T10:55:17.988Z,202.00
2024-05-09T10:56:17.928Z,197.47
2024-05-09T10:57:17.940Z,200.00
2024-05-09T10:58:18.159Z,193.78
2024-05-09T10:59:17.907Z,196.40
2024-05-09T11:00:27.294Z,197.88
2024-05-09T11:01:19.099Z,197.73
2024-05-09T11:02:18.046Z,198.01
2024-05-09T11:03:17.935Z,197.46
2024-05-09T11:04:17.987Z,200.04
2024-05-09T11:05:18.057Z,200.27
2024-05-09T11:06:17.865Z,200.47
2024-05-09T11:07:17.910Z,195.11
2024-05-09T11:08:17.852Z,195.31
2024-05-09T11:09:17.822Z,195.36
2024-05-09T11:10:24.934Z,196.87
2024-05-09T11:11:18.837Z,195.28
2024-05-09T11:12:19.330Z,196.11
2024-05-09T11:13:17.789Z,197.40
2024-05-09T11:14:17.708Z,198.61
2024-05-09T11:15:17.747Z,201.13
2024-05-09T11:16:17.812Z,199.14
2024-05-09T11:17:17.711Z,197.36
2024-05-09T11:18:18.814Z,197.30
2024-05-09T11:19:17.777Z,197.32
2024-05-09T11:20:26.745Z,197.47
2024-05-09T11:21:18.556Z,197.35
2024-05-09T11:22:17.762Z,197.60
2024-05-09T11:23:17.535Z,197.96
2024-05-09T11:24:17.503Z,198.51
2024-05-09T11:25:17.611Z,198.92
2024-05-09T11:26:17.470Z,199.59
2024-05-09T11:27:17.448Z,197.85
2024-05-09T11:28:17.626Z,198.80
2024-05-09T11:29:19.595Z,198.34
2024-05-09T11:30:24.235Z,199.06
2024-05-09T11:31:18.682Z,199.14
2024-05-09T11:32:17.484Z,199.36
2024-05-09T11:33:17.567Z,199.37
2024-05-09T11:34:17.453Z,200.07
2024-05-09T11:35:17.434Z,199.96
2024-05-09T11:36:17.385Z,199.09
2024-05-09T11:37:17.517Z,200.00
2024-05-09T11:38:17.353Z,199.01
2024-05-09T11:39:17.298Z,198.91
2024-05-09T11:40:25.163Z,199.36
2024-05-09T11:41:18.410Z,199.42
2024-05-09T11:42:17.259Z,199.50
2024-05-09T11:43:17.351Z,200.29
2024-05-09T11:44:17.238Z,200.65
2024-05-09T11:45:17.205Z,200.23
2024-05-09T11:46:17.373Z,199.18
2024-05-09T11:47:17.208Z,199.27
2024-05-09T11:48:17.244Z,199.93
2024-05-09T11:49:17.228Z,198.42
2024-05-09T11:50:26.743Z,198.51
2024-05-09T11:51:18.058Z,198.55
2024-05-09T11:52:17.184Z,198.62
2024-05-09T11:53:17.022Z,198.74
2024-05-09T11:54:16.990Z,197.38
2024-05-09T11:55:17.115Z,198.94
2024-05-09T11:56:16.950Z,197.62
2024-05-09T11:57:16.947Z,198.34
2024-05-09T11:58:17.156Z,199.59
2024-05-09T11:59:16.909Z,198.70
2024-05-09T12:00:24.863Z,198.00
2024-05-09T12:01:17.880Z,198.04
2024-05-09T12:02:17.155Z,198.13
2024-05-09T12:03:16.950Z,198.22
2024-05-09T12:04:17.106Z,198.52
2024-05-09T12:05:17.041Z,199.14
2024-05-09T12:06:16.980Z,198.61
2024-05-09T12:07:17.006Z,199.18
2024-05-09T12:08:16.774Z,199.39
2024-05-09T12:09:16.706Z,198.02
2024-05-09T12:10:22.152Z,198.16
2024-05-09T12:11:16.923Z,198.22
2024-05-09T12:12:16.646Z,198.50
2024-05-09T12:13:16.824Z,198.97
2024-05-09T12:14:16.599Z,199.54
2024-05-09T12:15:16.768Z,199.76
2024-05-09T12:16:16.903Z,198.29
2024-05-09T12:17:16.645Z,198.10
2024-05-09T12:18:16.670Z,198.09
2024-05-09T12:19:16.579Z,198.59
2024-05-09T12:20:21.596Z,199.50
2024-05-09T12:21:17.521Z,199.53
2024-05-09T12:22:16.655Z,199.64
2024-05-09T12:23:16.450Z,199.62
2024-05-09T12:24:18.564Z,199.05
2024-05-09T12:25:16.584Z,201.88
2024-05-09T12:26:16.520Z,199.21
2024-05-09T12:27:16.465Z,200.00
2024-05-09T12:28:16.753Z,197.89
2024-05-09T12:29:16.509Z,197.70
2024-05-09T12:30:24.671Z,198.57
2024-05-09T12:31:17.416Z,198.63
2024-05-09T12:32:16.652Z,198.57
2024-05-09T12:33:16.862Z,198.82
2024-05-09T12:34:16.442Z,199.54
2024-05-09T12:35:16.332Z,199.56
2024-05-09T12:36:16.297Z,199.62
2024-05-09T12:37:16.385Z,199.23
2024-05-09T12:38:16.231Z,199.23
2024-05-09T12:39:16.242Z,199.60
2024-05-09T12:40:23.161Z,198.32
2024-05-09T12:41:17.239Z,198.38
2024-05-09T12:42:26.440Z,198.66
2024-05-09T12:43:17.251Z,198.39
2024-05-09T12:44:16.197Z,198.60
2024-05-09T12:45:16.170Z,198.93
2024-05-09T12:46:16.178Z,199.11
2024-05-09T12:47:16.186Z,200.26
2024-05-09T12:48:16.344Z,199.09
2024-05-09T12:49:18.961Z,199.80
2024-05-09T12:50:24.926Z,198.61
2024-05-09T12:51:17.043Z,198.68
2024-05-09T12:52:16.048Z,198.92